createdAt,value
2023-01-06T00:01:36.749Z,84.13
2023-01-06T00:04:06.130Z,84.65
2023-01-06T00:06:35.333Z,84.40
2023-01-06T00:09:06.465Z,85.09
2023-01-06T00:11:35.575Z,85.12
2023-01-06T00:14:05.940Z,85.36
2023-01-06T00:16:35.053Z,85.77
2023-01-06T00:19:04.142Z,86.30
2023-01-06T00:21:33.205Z,86.66
2023-01-06T00:24:01.980Z,86.05
2023-01-06T00:26:31.504Z,86.78
2023-01-06T00:29:01.479Z,86.74
2023-01-06T00:31:32.018Z,86.44
2023-01-06T00:34:00.950Z,86.86
2023-01-06T00:36:30.040Z,86.63
2023-01-06T00:38:58.841Z,87.04
2023-01-06T00:41:45.175Z,86.26
2023-01-06T00:44:13.997Z,85.97
2023-01-06T00:46:44.671Z,85.23
2023-01-06T00:49:13.439Z,83.23
2023-01-06T00:51:42.904Z,84.22
2023-01-06T00:54:15.374Z,84.01
2023-01-06T00:56:47.210Z,84.26
2023-01-06T00:59:18.636Z,83.29
2023-01-06T01:01:52.634Z,83.87
2023-01-06T01:04:23.445Z,84.00
2023-01-06T01:06:54.268Z,83.59
2023-01-06T01:09:26.220Z,84.08
2023-01-06T01:12:12.056Z,84.74
2023-01-06T01:14:44.710Z,85.19
2023-01-06T01:17:19.289Z,85.83
2023-01-06T01:19:50.390Z,85.63
2023-01-06T01:22:19.816Z,84.80
2023-01-06T01:24:48.643Z,85.29
2023-01-06T01:27:18.443Z,85.01
2023-01-06T01:29:47.650Z,86.08
2023-01-06T01:32:18.168Z,84.67
2023-01-06T01:34:47.113Z,83.77
2023-01-06T01:37:16.299Z,84.64
2023-01-06T01:39:45.112Z,82.53
2023-01-06T01:42:18.977Z,83.78
2023-01-06T01:44:58.125Z,83.92
2023-01-06T01:47:40.172Z,84.50
2023-01-06T01:50:22.063Z,85.07
2023-01-06T01:52:55.981Z,84.46
2023-01-06T01:55:28.392Z,85.01
2023-01-06T01:58:05.761Z,83.90
2023-01-06T02:00:36.557Z,84.37
2023-01-06T02:03:08.782Z,86.02
2023-01-06T02:05:43.916Z,85.33
2023-01-06T02:08:27.550Z,85.29
2023-01-06T02:10:56.546Z,84.49
2023-01-06T02:13:27.718Z,83.97
2023-01-06T02:16:14.572Z,85.79
2023-01-06T02:19:00.325Z,85.39
2023-01-06T02:22:04.555Z,86.44
2023-01-06T02:25:10.238Z,85.32
2023-01-06T02:28:17.079Z,86.13
2023-01-06T02:31:31.512Z,83.89
2023-01-06T02:34:13.444Z,84.83
2023-01-06T02:36:53.914Z,83.84
2023-01-06T02:39:44.310Z,83.93
2023-01-06T02:42:23.577Z,83.22
2023-01-06T02:45:04.084Z,83.14
2023-01-06T02:47:43.314Z,83.51
2023-01-06T02:50:25.399Z,82.64
2023-01-06T02:53:07.371Z,82.03
2023-01-06T02:55:44.460Z,82.44
2023-01-06T02:58:27.704Z,81.95
2023-01-06T03:01:05.640Z,79.90
2023-01-06T03:03:40.823Z,78.26
2023-01-06T03:06:17.250Z,78.06
2023-01-06T03:08:51.715Z,77.01
2023-01-06T03:11:22.612Z,76.04
2023-01-06T03:14:00.116Z,75.96
2023-01-06T03:16:30.052Z,74.34
2023-01-06T03:18:59.723Z,76.26
2023-01-06T03:21:37.272Z,76.19
2023-01-06T03:24:09.786Z,77.48
2023-01-06T03:26:44.331Z,76.59
2023-01-06T03:29:17.817Z,77.06
2023-01-06T03:32:01.498Z,77.09
2023-01-06T03:35:02.215Z,77.09
2023-01-06T03:37:51.665Z,76.41
2023-01-06T03:40:33.557Z,77.31
2023-01-06T03:43:14.115Z,77.51
2023-01-06T03:46:18.399Z,78.16
2023-01-06T03:49:01.582Z,78.95
2023-01-06T03:51:46.242Z,79.48
2023-01-06T03:54:36.531Z,78.82
2023-01-06T03:57:13.607Z,79.51
2023-01-06T03:59:48.525Z,78.98
2023-01-06T04:02:21.563Z,78.38
2023-01-06T04:05:08.480Z,78.81
2023-01-06T04:07:38.835Z,78.34
2023-01-06T04:10:11.678Z,77.77
2023-01-06T04:12:41.040Z,78.76
2023-01-06T04:15:18.913Z,78.10
2023-01-06T04:17:50.754Z,77.99
2023-01-06T04:20:23.489Z,78.81
2023-01-06T04:22:58.612Z,78.76
2023-01-06T04:25:30.529Z,79.30
2023-01-06T04:27:59.780Z,79.61
2023-01-06T04:30:29.125Z,80.45
2023-01-06T04:32:58.913Z,80.54
2023-01-06T04:35:27.732Z,78.99
2023-01-06T04:37:57.324Z,79.48
2023-01-06T04:40:26.173Z,79.14
2023-01-06T04:43:05.548Z,77.87
2023-01-06T04:45:35.659Z,79.77
2023-01-06T04:48:05.078Z,79.80
2023-01-06T04:50:34.107Z,79.52
2023-01-06T04:53:03.262Z,80.38
2023-01-06T04:55:32.145Z,80.73
2023-01-06T04:58:02.589Z,80.64
2023-01-06T05:00:31.498Z,80.77
2023-01-06T05:03:00.817Z,80.96
2023-01-06T05:05:29.652Z,81.18
2023-01-06T05:07:58.696Z,82.00
2023-01-06T05:10:27.495Z,81.73
2023-01-06T05:12:56.569Z,81.23
2023-01-06T05:15:26.889Z,81.87
2023-01-06T05:17:55.953Z,82.40
2023-01-06T05:20:24.962Z,83.22
2023-01-06T05:22:54.213Z,82.51
2023-01-06T05:25:23.042Z,81.91
2023-01-06T05:27:52.096Z,82.63
2023-01-06T05:30:21.110Z,83.21
2023-01-06T05:32:51.548Z,84.19
2023-01-06T05:35:20.705Z,83.02
2023-01-06T05:37:49.743Z,83.45
2023-01-06T05:40:18.892Z,83.43
2023-01-06T05:42:47.926Z,83.26
2023-01-06T05:45:16.870Z,82.82
2023-01-06T05:47:46.233Z,83.33
2023-01-06T05:50:16.609Z,82.84
2023-01-06T05:52:45.694Z,83.27
2023-01-06T05:55:14.630Z,82.66
2023-01-06T05:57:43.662Z,82.88
2023-01-06T06:00:14.087Z,81.39
2023-01-06T06:02:43.240Z,83.29
2023-01-06T06:05:12.450Z,82.60
2023-01-06T06:07:42.966Z,81.83
2023-01-06T06:10:11.844Z,83.10
2023-01-06T06:12:40.939Z,83.00
2023-01-06T06:15:10.611Z,82.90
2023-01-06T06:17:39.714Z,83.11
2023-01-06T06:20:10.039Z,83.32
2023-01-06T06:22:39.640Z,81.50
2023-01-06T06:25:10.895Z,82.26
2023-01-06T06:27:39.935Z,82.45
2023-01-06T06:30:10.120Z,82.60
2023-01-06T06:32:39.237Z,82.97
2023-01-06T06:35:09.241Z,82.91
2023-01-06T06:37:38.433Z,83.53
2023-01-06T06:40:10.536Z,83.38
2023-01-06T06:42:39.803Z,83.14
2023-01-06T06:45:10.074Z,82.77
2023-01-06T06:47:39.187Z,83.02
2023-01-06T06:50:11.389Z,83.20
2023-01-06T06:52:40.627Z,81.58
2023-01-06T06:55:11.413Z,82.58
2023-01-06T06:57:40.615Z,83.04
2023-01-06T07:00:11.748Z,82.76
2023-01-06T07:02:40.879Z,82.83
2023-01-06T07:05:10.185Z,81.77
2023-01-06T07:07:39.243Z,82.18
2023-01-06T07:10:13.536Z,82.44
2023-01-06T07:12:42.645Z,82.78
2023-01-06T07:15:12.227Z,82.44
2023-01-06T07:17:42.295Z,81.02
2023-01-06T07:20:12.058Z,81.40
2023-01-06T07:22:41.980Z,81.68
2023-01-06T07:25:12.646Z,81.77
2023-01-06T07:27:41.696Z,81.40
2023-01-06T07:30:12.532Z,81.28
2023-01-06T07:32:41.613Z,81.69
2023-01-06T07:35:11.424Z,81.53
2023-01-06T07:37:40.494Z,82.13
2023-01-06T07:40:12.380Z,82.64
2023-01-06T07:42:41.952Z,81.10
2023-01-06T07:45:12.169Z,82.03
2023-01-06T07:47:41.359Z,81.37
2023-01-06T07:50:10.483Z,81.26
2023-01-06T07:52:39.547Z,82.11
2023-01-06T07:55:09.550Z,80.52
2023-01-06T07:57:40.036Z,80.96
2023-01-06T08:00:10.837Z,81.37
2023-01-06T08:02:43.075Z,79.38
2023-01-06T08:05:12.107Z,79.84
2023-01-06T08:07:41.250Z,79.89
2023-01-06T08:10:10.734Z,79.88
2023-01-06T08:12:41.161Z,78.15
2023-01-06T08:15:11.227Z,80.30
2023-01-06T08:17:40.465Z,79.88
2023-01-06T08:20:11.071Z,79.61
2023-01-06T08:22:39.887Z,78.93
2023-01-06T08:25:10.494Z,78.37
2023-01-06T08:27:40.695Z,77.84
2023-01-06T08:30:11.868Z,78.73
2023-01-06T08:32:40.683Z,78.17
2023-01-06T08:35:10.258Z,78.14
2023-01-06T08:37:39.114Z,79.05
2023-01-06T08:40:09.811Z,78.88
2023-01-06T08:42:40.052Z,78.54
2023-01-06T08:45:09.896Z,77.37
2023-01-06T08:47:38.671Z,76.83
2023-01-06T08:50:08.502Z,76.38
2023-01-06T08:52:37.311Z,76.72
2023-01-06T08:55:07.266Z,77.24
2023-01-06T08:57:36.136Z,77.26
2023-01-06T09:00:09.266Z,77.25
2023-01-06T09:02:38.114Z,76.46
2023-01-06T09:05:08.265Z,76.96
2023-01-06T09:07:37.163Z,77.65
2023-01-06T09:10:07.593Z,77.97
2023-01-06T09:12:36.491Z,78.52
2023-01-06T09:15:08.478Z,78.42
2023-01-06T09:17:37.332Z,76.39
2023-01-06T09:20:07.674Z,76.45
2023-01-06T09:22:36.472Z,76.31
2023-01-06T09:25:06.770Z,77.19
2023-01-06T09:27:35.575Z,75.01
2023-01-06T09:30:08.177Z,76.11
2023-01-06T09:32:37.103Z,76.49
2023-01-06T09:35:07.477Z,76.03
2023-01-06T09:37:36.322Z,75.36
2023-01-06T09:40:06.983Z,75.13
2023-01-06T09:42:58.777Z,75.26
2023-01-06T09:45:39.443Z,76.21
2023-01-06T09:48:17.821Z,76.29
2023-01-06T09:50:54.665Z,75.54
2023-01-06T09:53:30.821Z,74.65
2023-01-06T09:56:05.110Z,74.89
2023-01-06T09:58:40.564Z,75.81
2023-01-06T10:01:16.948Z,75.84
2023-01-06T10:03:49.091Z,76.35
2023-01-06T10:06:33.027Z,74.88
2023-01-06T10:09:19.776Z,74.80
2023-01-06T10:12:08.967Z,75.29
2023-01-06T10:14:54.557Z,76.37
2023-01-06T10:17:50.240Z,76.18
2023-01-06T10:20:53.577Z,75.07
2023-01-06T10:23:47.151Z,76.00
2023-01-06T10:26:29.955Z,76.41
2023-01-06T10:29:07.315Z,75.92
2023-01-06T10:31:41.887Z,75.78
2023-01-06T10:34:22.999Z,76.34
2023-01-06T10:37:05.813Z,75.90
2023-01-06T10:39:39.437Z,76.24
2023-01-06T10:42:46.038Z,75.94
2023-01-06T10:45:16.513Z,75.88
2023-01-06T10:47:46.903Z,76.01
2023-01-06T10:50:20.237Z,74.89
2023-01-06T10:52:50.272Z,75.09
2023-01-06T10:55:40.286Z,76.03
2023-01-06T10:58:32.384Z,75.47
2023-01-06T11:01:10.756Z,75.16
2023-01-06T11:03:42.797Z,75.91
2023-01-06T11:06:26.662Z,75.46
2023-01-06T11:08:56.201Z,74.76
2023-01-06T11:11:28.861Z,74.82
2023-01-06T11:14:04.836Z,75.01
2023-01-06T11:16:37.965Z,75.41
2023-01-06T11:19:23.235Z,76.37
2023-01-06T11:21:53.701Z,76.82
2023-01-06T11:24:25.307Z,76.04
2023-01-06T11:26:57.407Z,76.12
2023-01-06T11:29:31.232Z,75.29
2023-01-06T11:32:06.913Z,75.52
2023-01-06T11:34:35.961Z,75.99
2023-01-06T11:37:06.993Z,76.00
2023-01-06T11:39:38.600Z,75.83
2023-01-06T11:42:15.693Z,76.10
2023-01-06T11:44:45.175Z,75.22
2023-01-06T11:47:19.870Z,75.66
2023-01-06T11:49:52.187Z,75.14
2023-01-06T11:52:25.565Z,75.57
2023-01-06T11:55:18.754Z,75.55
2023-01-06T11:58:01.241Z,76.32
2023-01-06T12:00:47.365Z,76.41
2023-01-06T12:03:26.482Z,75.09
2023-01-06T12:06:06.259Z,75.36
2023-01-06T12:08:46.259Z,75.74
2023-01-06T12:11:23.094Z,76.45
2023-01-06T12:14:08.731Z,76.17
2023-01-06T12:16:56.836Z,75.68
2023-01-06T12:19:37.721Z,77.06
2023-01-06T12:22:20.616Z,75.79
2023-01-06T12:24:53.943Z,76.85
2023-01-06T12:27:34.685Z,77.69
2023-01-06T12:30:09.780Z,76.89
2023-01-06T12:32:46.644Z,77.84
2023-01-06T12:35:21.142Z,77.29
2023-01-06T12:37:57.047Z,77.54
2023-01-06T12:40:36.107Z,76.59
2023-01-06T12:43:17.448Z,77.11
2023-01-06T12:45:58.110Z,77.49
2023-01-06T12:48:42.665Z,77.30
2023-01-06T12:51:20.621Z,77.18
2023-01-06T12:53:57.537Z,76.98
2023-01-06T12:56:56.925Z,77.54
2023-01-06T12:59:45.390Z,78.37
2023-01-06T13:02:38.526Z,78.28
2023-01-06T13:05:42.696Z,77.78
2023-01-06T13:08:40.199Z,77.40
2023-01-06T13:11:22.275Z,78.04
2023-01-06T13:14:05.581Z,77.47
2023-01-06T13:16:47.927Z,78.25
2023-01-06T13:19:42.923Z,78.14
2023-01-06T13:22:20.337Z,78.76
2023-01-06T13:25:24.122Z,78.54
2023-01-06T13:28:09.559Z,77.74
2023-01-06T13:31:27.709Z,77.76
2023-01-06T13:34:42.809Z,77.46
2023-01-06T13:37:34.464Z,77.72
2023-01-06T13:40:11.151Z,78.32
2023-01-06T13:42:48.581Z,78.55
2023-01-06T13:45:24.605Z,79.05
2023-01-06T13:47:56.907Z,78.83
2023-01-06T13:50:27.755Z,79.02
2023-01-06T13:52:57.682Z,78.95
2023-01-06T13:55:35.454Z,78.56
2023-01-06T13:58:44.384Z,78.57
2023-01-06T14:01:31.283Z,78.30
2023-01-06T14:04:58.439Z,78.99
2023-01-06T14:07:36.780Z,79.20
2023-01-06T14:10:28.699Z,78.81
2023-01-06T14:12:58.205Z,79.50
2023-01-06T14:15:32.310Z,79.00
2023-01-06T14:18:03.732Z,79.47
2023-01-06T14:20:40.178Z,79.43
2023-01-06T14:23:24.749Z,79.26
2023-01-06T14:25:58.227Z,78.84
2023-01-06T14:28:32.662Z,78.76
2023-01-06T14:31:46.388Z,79.08
2023-01-06T14:34:19.851Z,78.90
2023-01-06T14:36:53.577Z,79.56
2023-01-06T14:39:28.236Z,78.95
2023-01-06T14:42:05.291Z,79.30
2023-01-06T14:44:44.643Z,79.54
2023-01-06T14:47:22.495Z,79.29
2023-01-06T14:49:59.332Z,79.80
2023-01-06T14:52:35.874Z,80.18
2023-01-06T14:55:11.919Z,80.59
2023-01-06T14:57:41.072Z,80.46
2023-01-06T15:00:18.560Z,81.10
2023-01-06T15:02:50.142Z,80.62
2023-01-06T15:05:23.101Z,80.45
2023-01-06T15:08:03.333Z,80.99
2023-01-06T15:10:35.566Z,81.04
2023-01-06T15:13:05.612Z,80.94
2023-01-06T15:15:35.089Z,81.18
2023-01-06T15:18:04.534Z,81.49
2023-01-06T15:20:41.311Z,81.19
2023-01-06T15:23:16.836Z,81.62
2023-01-06T15:25:49.598Z,81.72
2023-01-06T15:28:26.873Z,81.14
2023-01-06T15:30:56.563Z,81.06
2023-01-06T15:33:34.233Z,81.15
2023-01-06T15:36:05.147Z,81.40
2023-01-06T15:38:39.241Z,81.76
2023-01-06T15:41:29.371Z,82.37
2023-01-06T15:43:58.606Z,81.80
2023-01-06T15:46:38.687Z,82.26
2023-01-06T15:49:17.934Z,81.78
2023-01-06T15:51:56.995Z,81.87
2023-01-06T15:54:30.662Z,81.81
2023-01-06T15:57:15.340Z,82.62
2023-01-06T15:59:55.848Z,83.26
2023-01-06T16:02:29.847Z,83.20
2023-01-06T16:05:00.827Z,83.33
2023-01-06T16:07:40.370Z,83.51
2023-01-06T16:10:38.625Z,83.21
2023-01-06T16:13:26.971Z,84.00
2023-01-06T16:16:03.114Z,83.82
2023-01-06T16:18:35.172Z,85.14
2023-01-06T16:21:21.323Z,84.97
2023-01-06T16:23:53.393Z,85.21
2023-01-06T16:26:28.081Z,85.79
2023-01-06T16:28:59.992Z,86.09
2023-01-06T16:31:33.006Z,86.70
2023-01-06T16:34:27.312Z,86.67
2023-01-06T16:36:59.539Z,86.14
2023-01-06T16:39:29.136Z,86.41
2023-01-06T16:42:41.117Z,87.16
2023-01-06T16:45:33.750Z,87.34
2023-01-06T16:48:03.027Z,87.46
2023-01-06T16:50:39.369Z,87.55
2023-01-06T16:53:18.177Z,88.04
2023-01-06T16:55:52.435Z,88.54
2023-01-06T16:58:26.530Z,89.68
2023-01-06T17:00:59.115Z,91.20
2023-01-06T17:03:32.265Z,91.88
2023-01-06T17:06:01.645Z,92.17
2023-01-06T17:08:32.555Z,93.74
2023-01-06T17:11:04.168Z,95.52
2023-01-06T17:13:39.724Z,96.19
2023-01-06T17:16:17.105Z,96.50
2023-01-06T17:18:53.910Z,96.87
2023-01-06T17:21:26.197Z,97.64
2023-01-06T17:23:59.845Z,98.08
2023-01-06T17:26:30.490Z,98.77
2023-01-06T17:29:03.429Z,100.00
2023-01-06T17:31:38.069Z,99.79
2023-01-06T17:34:17.189Z,100.00
2023-01-06T17:36:49.257Z,100.00
2023-01-06T17:39:22.841Z,100.00
2023-01-06T17:42:01.677Z,100.00
2023-01-06T17:44:38.013Z,100.00
2023-01-06T17:47:24.849Z,100.00
2023-01-06T17:49:56.704Z,100.00
2023-01-06T17:52:32.025Z,100.00
2023-01-06T17:55:42.163Z,100.00
2023-01-06T17:58:16.293Z,100.00
2023-01-06T18:00:47.553Z,100.00
2023-01-06T18:03:23.539Z,100.00
2023-01-06T18:06:20.401Z,100.00
2023-01-06T18:08:53.463Z,100.00
2023-01-06T18:11:37.040Z,100.00
2023-01-06T18:14:38.973Z,100.00
2023-01-06T18:17:24.016Z,100.00
2023-01-06T18:19:53.350Z,100.00
2023-01-06T18:22:25.122Z,100.00
2023-01-06T18:24:59.078Z,100.00
2023-01-06T18:27:33.427Z,100.00
2023-01-06T18:30:21.110Z,100.00
2023-01-06T18:32:53.076Z,100.00
2023-01-06T18:35:27.776Z,100.00
2023-01-06T18:38:02.444Z,100.00
2023-01-06T18:40:31.627Z,100.00
2023-01-06T18:43:03.969Z,100.00
2023-01-06T18:45:36.231Z,100.00
2023-01-06T18:48:18.676Z,100.00
2023-01-06T18:50:50.465Z,100.00
2023-01-06T18:53:27.815Z,100.00
2023-01-06T18:55:59.939Z,100.00
2023-01-06T18:58:46.385Z,100.00
2023-01-06T19:01:22.980Z,100.00
2023-01-06T19:04:03.793Z,100.00
2023-01-06T19:06:39.436Z,100.00
2023-01-06T19:09:22.474Z,100.00
2023-01-06T19:12:03.598Z,100.00
2023-01-06T19:14:38.023Z,100.00
2023-01-06T19:17:22.352Z,100.00
2023-01-06T19:19:53.606Z,100.00
2023-01-06T19:22:26.273Z,100.00
2023-01-06T19:25:03.506Z,100.00
2023-01-06T19:27:45.712Z,100.00
2023-01-06T19:30:43.942Z,100.00
2023-01-06T19:33:37.298Z,100.00
2023-01-06T19:36:41.974Z,100.00
2023-01-06T19:39:40.852Z,100.00
2023-01-06T19:42:24.579Z,100.00
2023-01-06T19:44:57.951Z,100.00
2023-01-06T19:47:29.806Z,100.00
2023-01-06T19:50:17.213Z,100.00
2023-01-06T19:52:47.820Z,100.00
2023-01-06T19:55:22.565Z,100.00
2023-01-06T19:57:55.074Z,100.00
2023-01-06T20:00:40.895Z,100.00
2023-01-06T20:03:28.237Z,100.00
2023-01-06T20:05:57.482Z,100.00
2023-01-06T20:08:28.168Z,100.00
2023-01-06T20:10:57.122Z,100.00
2023-01-06T20:13:26.351Z,100.00
2023-01-06T20:15:55.152Z,100.00
2023-01-06T20:18:24.228Z,100.00
2023-01-06T20:20:53.147Z,100.00
2023-01-06T20:23:22.654Z,100.00
2023-01-06T20:25:53.121Z,100.00
2023-01-06T20:28:22.502Z,100.00
2023-01-06T20:30:51.617Z,100.00
2023-01-06T20:33:20.776Z,100.00
2023-01-06T20:35:49.781Z,100.00
2023-01-06T20:38:18.833Z,100.00
2023-01-06T20:40:47.687Z,100.00
2023-01-06T20:43:18.272Z,100.00
2023-01-06T20:45:47.369Z,100.00
2023-01-06T20:48:16.597Z,100.00
2023-01-06T20:50:45.414Z,100.00
2023-01-06T20:53:14.459Z,100.00
2023-01-06T20:55:43.815Z,100.00
2023-01-06T20:58:13.516Z,100.00
2023-01-06T21:00:43.739Z,100.00
2023-01-06T21:03:12.941Z,100.00
2023-01-06T21:05:41.719Z,100.00
2023-01-06T21:08:10.827Z,100.00
2023-01-06T21:10:39.761Z,100.00
2023-01-06T21:13:08.968Z,100.00
2023-01-06T21:15:37.805Z,100.00
2023-01-06T21:18:08.311Z,100.00
2023-01-06T21:20:37.153Z,100.00
2023-01-06T21:23:06.261Z,100.00
2023-01-06T21:25:35.034Z,100.00
2023-01-06T21:28:04.144Z,100.00
2023-01-06T21:30:33.029Z,100.00
2023-01-06T21:33:02.171Z,100.00
2023-01-06T21:35:32.383Z,100.00
2023-01-06T21:38:01.439Z,100.00
2023-01-06T21:40:30.206Z,100.00
2023-01-06T21:43:10.671Z,100.00
2023-01-06T21:45:41.894Z,100.00
2023-01-06T21:48:13.458Z,100.00
2023-01-06T21:50:46.060Z,100.00
2023-01-06T21:53:15.880Z,100.00
2023-01-06T21:55:44.710Z,100.00
2023-01-06T21:58:13.820Z,100.00
2023-01-06T22:00:42.611Z,100.00
2023-01-06T22:03:13.342Z,100.00
2023-01-06T22:05:44.393Z,100.00
2023-01-06T22:08:14.233Z,100.00
2023-01-06T22:10:44.973Z,100.00
2023-01-06T22:13:19.476Z,100.00
2023-01-06T22:15:48.797Z,100.00
2023-01-06T22:18:19.533Z,100.00
2023-01-06T22:20:49.811Z,100.00
2023-01-06T22:23:22.954Z,100.00
2023-01-06T22:25:51.854Z,100.00
2023-01-06T22:28:21.287Z,100.00
2023-01-06T22:30:51.526Z,100.00
2023-01-06T22:33:20.777Z,100.00
2023-01-06T22:35:51.035Z,100.00
2023-01-06T22:38:20.135Z,100.00
2023-01-06T22:40:48.917Z,100.00
2023-01-06T22:43:19.277Z,100.00
2023-01-06T22:45:53.733Z,100.00
2023-01-06T22:48:22.829Z,100.00
2023-01-06T22:50:59.490Z,100.00
2023-01-06T22:53:30.068Z,100.00
2023-01-06T22:56:00.384Z,100.00
2023-01-06T22:58:29.986Z,100.00
2023-01-06T23:00:58.793Z,100.00
2023-01-06T23:03:27.905Z,100.00
2023-01-06T23:06:00.655Z,100.00
2023-01-06T23:08:32.470Z,100.00
2023-01-06T23:11:05.715Z,100.00
2023-01-06T23:13:36.484Z,100.00
2023-01-06T23:16:09.071Z,100.00
2023-01-06T23:18:41.055Z,100.00
2023-01-06T23:21:13.596Z,100.00
2023-01-06T23:23:44.698Z,100.00
2023-01-06T23:26:16.672Z,100.00
2023-01-06T23:28:46.796Z,100.00
2023-01-06T23:31:18.646Z,100.00
2023-01-06T23:33:50.612Z,100.00
2023-01-06T23:36:22.053Z,100.00
2023-01-06T23:38:51.961Z,100.00
2023-01-06T23:41:23.945Z,100.00
2023-01-06T23:43:54.205Z,100.00
2023-01-06T23:46:27.856Z,100.00
2023-01-06T23:48:58.156Z,100.00
2023-01-06T23:51:30.749Z,100.00
2023-01-06T23:54:00.998Z,100.00
2023-01-06T23:56:32.695Z,100.00
2023-01-06T23:59:04.292Z,100.00
